sensor_id;sensor_type;location;lat;lon;timestamp;temperature;humidity
73586;DHT22;61865;50.232;18.614;2023-05-07T00:00:04;9.50;99.90
73586;DHT22;61865;50.232;18.614;2023-05-07T00:02:28;9.50;99.90
73586;DHT22;61865;50.232;18.614;2023-05-07T00:04:50;9.50;99.90
73586;DHT22;61865;50.232;18.614;2023-05-07T00:07:12;9.50;99.90
73586;DHT22;61865;50.232;18.614;2023-05-07T00:09:36;9.50;99.90
73586;DHT22;61865;50.232;18.614;2023-05-07T00:11:58;9.40;99.90
73586;DHT22;61865;50.232;18.614;2023-05-07T00:14:20;9.40;99.90
73586;DHT22;61865;50.232;18.614;2023-05-07T00:16:42;9.40;99.90
73586;DHT22;61865;50.232;18.614;2023-05-07T00:19:04;9.40;99.90
73586;DHT22;61865;50.232;18.614;2023-05-07T00:21:28;9.30;99.90
73586;DHT22;61865;50.232;18.614;2023-05-07T00:23:51;9.30;99.90
73586;DHT22;61865;50.232;18.614;2023-05-07T00:26:14;9.30;99.90
73586;DHT22;61865;50.232;18.614;2023-05-07T00:28:36;9.30;99.90
73586;DHT22;61865;50.232;18.614;2023-05-07T00:30:57;9.30;99.90
73586;DHT22;61865;50.232;18.614;2023-05-07T00:33:19;9.30;99.90
73586;DHT22;61865;50.232;18.614;2023-05-07T00:35:42;9.30;99.90
73586;DHT22;61865;50.232;18.614;2023-05-07T00:38:04;9.30;99.90
73586;DHT22;61865;50.232;18.614;2023-05-07T00:40:25;9.20;99.90
73586;DHT22;61865;50.232;18.614;2023-05-07T00:42:49;9.30;99.90
73586;DHT22;61865;50.232;18.614;2023-05-07T00:45:11;9.30;99.90
73586;DHT22;61865;50.232;18.614;2023-05-07T00:47:33;9.20;99.90
73586;DHT22;61865;50.232;18.614;2023-05-07T00:49:54;9.20;99.90
73586;DHT22;61865;50.232;18.614;2023-05-07T00:52:17;9.20;99.90
73586;DHT22;61865;50.232;18.614;2023-05-07T00:54:42;9.30;99.90
73586;DHT22;61865;50.232;18.614;2023-05-07T00:57:04;9.30;99.90
73586;DHT22;61865;50.232;18.614;2023-05-07T00:59:28;9.30;99.90
73586;DHT22;61865;50.232;18.614;2023-05-07T01:01:50;9.40;99.90
73586;DHT22;61865;50.232;18.614;2023-05-07T01:04:13;9.50;99.90
73586;DHT22;61865;50.232;18.614;2023-05-07T01:06:35;9.50;99.90
73586;DHT22;61865;50.232;18.614;2023-05-07T01:08:57;9.30;99.90
73586;DHT22;61865;50.232;18.614;2023-05-07T01:11:19;9.20;99.90
73586;DHT22;61865;50.232;18.614;2023-05-07T01:13:41;9.30;99.90
73586;DHT22;61865;50.232;18.614;2023-05-07T01:16:06;9.10;99.90
73586;DHT22;61865;50.232;18.614;2023-05-07T01:18:28;9.10;99.90
73586;DHT22;61865;50.232;18.614;2023-05-07T01:20:51;9.10;99.90
73586;DHT22;61865;50.232;18.614;2023-05-07T01:23:14;9.00;99.90
73586;DHT22;61865;50.232;18.614;2023-05-07T01:25:37;9.00;99.90
73586;DHT22;61865;50.232;18.614;2023-05-07T01:27:58;8.90;99.90
73586;DHT22;61865;50.232;18.614;2023-05-07T01:30:22;8.90;99.90
73586;DHT22;61865;50.232;18.614;2023-05-07T01:32:47;8.90;99.90
73586;DHT22;61865;50.232;18.614;2023-05-07T01:35:13;8.90;99.90
73586;DHT22;61865;50.232;18.614;2023-05-07T01:37:37;8.90;99.90
73586;DHT22;61865;50.232;18.614;2023-05-07T01:40:01;8.90;99.90
73586;DHT22;61865;50.232;18.614;2023-05-07T01:42:24;9.00;99.90
73586;DHT22;61865;50.232;18.614;2023-05-07T01:44:46;9.00;99.90
73586;DHT22;61865;50.232;18.614;2023-05-07T01:47:08;9.00;99.90
73586;DHT22;61865;50.232;18.614;2023-05-07T01:49:31;8.90;99.90
73586;DHT22;61865;50.232;18.614;2023-05-07T01:51:52;8.90;99.90
73586;DHT22;61865;50.232;18.614;2023-05-07T01:54:15;8.80;99.90
73586;DHT22;61865;50.232;18.614;2023-05-07T01:56:38;8.80;99.90
73586;DHT22;61865;50.232;18.614;2023-05-07T01:59:00;8.80;99.90
73586;DHT22;61865;50.232;18.614;2023-05-07T02:01:22;8.80;99.90
73586;DHT22;61865;50.232;18.614;2023-05-07T02:03:44;8.90;99.90
73586;DHT22;61865;50.232;18.614;2023-05-07T02:06:06;8.80;99.90
73586;DHT22;61865;50.232;18.614;2023-05-07T02:08:28;8.80;99.90
73586;DHT22;61865;50.232;18.614;2023-05-07T02:10:50;8.80;99.90
73586;DHT22;61865;50.232;18.614;2023-05-07T02:13:15;8.80;99.90
73586;DHT22;61865;50.232;18.614;2023-05-07T02:15:37;8.90;99.90
73586;DHT22;61865;50.232;18.614;2023-05-07T02:18:01;8.90;99.90
73586;DHT22;61865;50.232;18.614;2023-05-07T02:20:23;8.80;99.90
73586;DHT22;61865;50.232;18.614;2023-05-07T02:22:45;8.70;99.90
73586;DHT22;61865;50.232;18.614;2023-05-07T02:25:07;8.80;99.90
73586;DHT22;61865;50.232;18.614;2023-05-07T02:27:29;8.80;99.90
73586;DHT22;61865;50.232;18.614;2023-05-07T02:29:52;8.80;99.90
73586;DHT22;61865;50.232;18.614;2023-05-07T02:32:14;8.70;99.90
73586;DHT22;61865;50.232;18.614;2023-05-07T02:34:36;8.70;99.90
73586;DHT22;61865;50.232;18.614;2023-05-07T02:36:58;8.70;99.90
73586;DHT22;61865;50.232;18.614;2023-05-07T02:39:20;8.70;99.90
73586;DHT22;61865;50.232;18.614;2023-05-07T02:41:42;8.70;99.90
73586;DHT22;61865;50.232;18.614;2023-05-07T02:44:04;8.70;99.90
73586;DHT22;61865;50.232;18.614;2023-05-07T02:46:27;8.70;99.90
73586;DHT22;61865;50.232;18.614;2023-05-07T02:48:49;8.70;99.90
73586;DHT22;61865;50.232;18.614;2023-05-07T02:51:11;8.70;99.90
73586;DHT22;61865;50.232;18.614;2023-05-07T02:53:32;8.70;99.90
73586;DHT22;61865;50.232;18.614;2023-05-07T02:55:56;8.60;99.90
73586;DHT22;61865;50.232;18.614;2023-05-07T02:58:18;8.60;99.90
73586;DHT22;61865;50.232;18.614;2023-05-07T03:00:40;8.60;99.90
73586;DHT22;61865;50.232;18.614;2023-05-07T03:03:03;8.60;99.90
73586;DHT22;61865;50.232;18.614;2023-05-07T03:05:25;8.50;99.90
73586;DHT22;61865;50.232;18.614;2023-05-07T03:07:46;8.50;99.90
73586;DHT22;61865;50.232;18.614;2023-05-07T03:10:09;8.50;99.90
73586;DHT22;61865;50.232;18.614;2023-05-07T03:12:31;8.40;99.90
73586;DHT22;61865;50.232;18.614;2023-05-07T03:14:53;8.50;99.90
73586;DHT22;61865;50.232;18.614;2023-05-07T03:17:15;8.50;99.90
73586;DHT22;61865;50.232;18.614;2023-05-07T03:19:38;8.40;99.90
73586;DHT22;61865;50.232;18.614;2023-05-07T03:22:00;8.40;99.90
73586;DHT22;61865;50.232;18.614;2023-05-07T03:24:22;8.50;99.90
73586;DHT22;61865;50.232;18.614;2023-05-07T03:26:44;8.50;99.90
73586;DHT22;61865;50.232;18.614;2023-05-07T03:29:06;8.50;99.90
73586;DHT22;61865;50.232;18.614;2023-05-07T03:31:28;8.50;99.90
73586;DHT22;61865;50.232;18.614;2023-05-07T03:33:51;8.60;99.90
73586;DHT22;61865;50.232;18.614;2023-05-07T03:36:15;8.60;99.90
73586;DHT22;61865;50.232;18.614;2023-05-07T03:38:36;8.50;99.90
73586;DHT22;61865;50.232;18.614;2023-05-07T03:40:58;8.50;99.90
73586;DHT22;61865;50.232;18.614;2023-05-07T03:43:20;8.50;99.90
73586;DHT22;61865;50.232;18.614;2023-05-07T03:45:42;8.50;99.90
73586;DHT22;61865;50.232;18.614;2023-05-07T03:48:04;8.50;99.90
73586;DHT22;61865;50.232;18.614;2023-05-07T03:50:26;8.40;99.90
73586;DHT22;61865;50.232;18.614;2023-05-07T03:52:49;8.40;99.90
73586;DHT22;61865;50.232;18.614;2023-05-07T03:55:11;8.30;99.90
73586;DHT22;61865;50.232;18.614;2023-05-07T03:57:33;8.30;99.90
73586;DHT22;61865;50.232;18.614;2023-05-07T03:59:54;8.20;99.90
73586;DHT22;61865;50.232;18.614;2023-05-07T04:02:16;8.20;99.90
73586;DHT22;61865;50.232;18.614;2023-05-07T04:04:38;8.20;99.90
73586;DHT22;61865;50.232;18.614;2023-05-07T04:07:00;8.20;99.90
73586;DHT22;61865;50.232;18.614;2023-05-07T04:09:23;8.20;99.90
73586;DHT22;61865;50.232;18.614;2023-05-07T04:11:45;8.20;99.90
73586;DHT22;61865;50.232;18.614;2023-05-07T04:14:07;8.20;99.90
73586;DHT22;61865;50.232;18.614;2023-05-07T04:16:29;8.20;99.90
73586;DHT22;61865;50.232;18.614;2023-05-07T04:18:51;8.30;99.90
73586;DHT22;61865;50.232;18.614;2023-05-07T04:21:16;8.30;99.90
73586;DHT22;61865;50.232;18.614;2023-05-07T04:23:38;8.30;99.90
73586;DHT22;61865;50.232;18.614;2023-05-07T04:26:01;8.20;99.90
73586;DHT22;61865;50.232;18.614;2023-05-07T04:28:23;8.20;99.90
73586;DHT22;61865;50.232;18.614;2023-05-07T04:30:46;8.10;99.90
73586;DHT22;61865;50.232;18.614;2023-05-07T04:33:08;8.10;99.90
73586;DHT22;61865;50.232;18.614;2023-05-07T04:35:30;8.10;99.90
73586;DHT22;61865;50.232;18.614;2023-05-07T04:37:52;8.00;99.90
73586;DHT22;61865;50.232;18.614;2023-05-07T04:40:14;8.00;99.90
73586;DHT22;61865;50.232;18.614;2023-05-07T04:42:37;8.00;99.90
73586;DHT22;61865;50.232;18.614;2023-05-07T04:44:59;8.00;99.90
73586;DHT22;61865;50.232;18.614;2023-05-07T04:47:21;7.90;99.90
73586;DHT22;61865;50.232;18.614;2023-05-07T04:49:43;7.90;99.90
73586;DHT22;61865;50.232;18.614;2023-05-07T04:52:05;7.90;99.90
73586;DHT22;61865;50.232;18.614;2023-05-07T04:54:27;7.90;99.90
73586;DHT22;61865;50.232;18.614;2023-05-07T04:56:49;7.90;99.90
73586;DHT22;61865;50.232;18.614;2023-05-07T04:59:12;7.90;99.90
73586;DHT22;61865;50.232;18.614;2023-05-07T05:01:34;7.90;99.90
73586;DHT22;61865;50.232;18.614;2023-05-07T05:03:56;7.90;99.90
73586;DHT22;61865;50.232;18.614;2023-05-07T05:06:18;7.90;99.90
73586;DHT22;61865;50.232;18.614;2023-05-07T05:08:39;7.90;99.90
73586;DHT22;61865;50.232;18.614;2023-05-07T05:11:02;7.90;99.90
73586;DHT22;61865;50.232;18.614;2023-05-07T05:13:23;7.90;99.90
73586;DHT22;61865;50.232;18.614;2023-05-07T05:15:47;7.90;99.90
73586;DHT22;61865;50.232;18.614;2023-05-07T05:18:09;7.90;99.90
73586;DHT22;61865;50.232;18.614;2023-05-07T05:20:34;7.90;99.90
73586;DHT22;61865;50.232;18.614;2023-05-07T05:22:56;7.80;99.90
73586;DHT22;61865;50.232;18.614;2023-05-07T05:25:18;7.80;99.90
73586;DHT22;61865;50.232;18.614;2023-05-07T05:27:40;7.80;99.90
73586;DHT22;61865;50.232;18.614;2023-05-07T05:30:03;7.80;99.90
73586;DHT22;61865;50.232;18.614;2023-05-07T05:32:27;7.80;99.90
73586;DHT22;61865;50.232;18.614;2023-05-07T05:34:49;7.70;99.90
73586;DHT22;61865;50.232;18.614;2023-05-07T05:37:11;7.70;99.90
73586;DHT22;61865;50.232;18.614;2023-05-07T05:39:33;7.70;99.90
73586;DHT22;61865;50.232;18.614;2023-05-07T05:41:55;7.80;99.90
73586;DHT22;61865;50.232;18.614;2023-05-07T05:44:17;7.90;99.90
73586;DHT22;61865;50.232;18.614;2023-05-07T05:46:39;7.90;99.90
73586;DHT22;61865;50.232;18.614;2023-05-07T05:49:02;7.90;99.90
73586;DHT22;61865;50.232;18.614;2023-05-07T05:51:24;7.90;99.90
73586;DHT22;61865;50.232;18.614;2023-05-07T05:53:46;7.90;99.90
73586;DHT22;61865;50.232;18.614;2023-05-07T05:56:08;7.90;99.90
73586;DHT22;61865;50.232;18.614;2023-05-07T05:58:30;7.80;99.90
73586;DHT22;61865;50.232;18.614;2023-05-07T06:00:52;7.80;99.90
73586;DHT22;61865;50.232;18.614;2023-05-07T06:03:15;7.80;99.90
73586;DHT22;61865;50.232;18.614;2023-05-07T06:05:38;7.80;99.90
73586;DHT22;61865;50.232;18.614;2023-05-07T06:08:00;7.90;99.90
73586;DHT22;61865;50.232;18.614;2023-05-07T06:10:22;7.80;99.90
73586;DHT22;61865;50.232;18.614;2023-05-07T06:12:44;7.90;99.90
73586;DHT22;61865;50.232;18.614;2023-05-07T06:15:07;7.80;99.90
73586;DHT22;61865;50.232;18.614;2023-05-07T06:17:29;7.80;99.90
73586;DHT22;61865;50.232;18.614;2023-05-07T06:19:51;7.70;99.90
73586;DHT22;61865;50.232;18.614;2023-05-07T06:22:15;7.60;99.90
73586;DHT22;61865;50.232;18.614;2023-05-07T06:24:36;7.60;99.90
73586;DHT22;61865;50.232;18.614;2023-05-07T06:26:58;7.50;99.90
73586;DHT22;61865;50.232;18.614;2023-05-07T06:29:20;7.50;99.90
73586;DHT22;61865;50.232;18.614;2023-05-07T06:31:42;7.40;99.90
73586;DHT22;61865;50.232;18.614;2023-05-07T06:34:04;7.40;99.90
73586;DHT22;61865;50.232;18.614;2023-05-07T06:36:26;7.50;99.90
73586;DHT22;61865;50.232;18.614;2023-05-07T06:38:49;7.50;99.90
73586;DHT22;61865;50.232;18.614;2023-05-07T06:41:11;7.50;99.90
73586;DHT22;61865;50.232;18.614;2023-05-07T06:43:33;7.50;99.90
73586;DHT22;61865;50.232;18.614;2023-05-07T06:45:54;7.40;99.90
73586;DHT22;61865;50.232;18.614;2023-05-07T06:48:16;7.40;99.90
73586;DHT22;61865;50.232;18.614;2023-05-07T06:50:38;7.40;99.90
73586;DHT22;61865;50.232;18.614;2023-05-07T06:53:00;7.40;99.90
73586;DHT22;61865;50.232;18.614;2023-05-07T06:55:23;7.40;99.90
73586;DHT22;61865;50.232;18.614;2023-05-07T06:57:45;7.50;99.90
73586;DHT22;61865;50.232;18.614;2023-05-07T07:00:08;7.50;99.90
73586;DHT22;61865;50.232;18.614;2023-05-07T07:02:30;7.40;99.90
73586;DHT22;61865;50.232;18.614;2023-05-07T07:04:52;7.40;99.90
73586;DHT22;61865;50.232;18.614;2023-05-07T07:07:14;7.40;99.90
73586;DHT22;61865;50.232;18.614;2023-05-07T07:09:35;7.50;99.90
73586;DHT22;61865;50.232;18.614;2023-05-07T07:11:59;7.50;99.90
73586;DHT22;61865;50.232;18.614;2023-05-07T07:14:20;7.60;99.90
73586;DHT22;61865;50.232;18.614;2023-05-07T07:16:42;7.60;99.90
73586;DHT22;61865;50.232;18.614;2023-05-07T07:19:04;7.60;99.90
73586;DHT22;61865;50.232;18.614;2023-05-07T07:21:26;7.60;99.90
73586;DHT22;61865;50.232;18.614;2023-05-07T07:23:48;7.70;99.90
73586;DHT22;61865;50.232;18.614;2023-05-07T07:26:10;7.70;99.90
73586;DHT22;61865;50.232;18.614;2023-05-07T07:28:33;7.70;99.90
73586;DHT22;61865;50.232;18.614;2023-05-07T07:30:55;7.90;99.90
73586;DHT22;61865;50.232;18.614;2023-05-07T07:33:17;8.00;99.90
73586;DHT22;61865;50.232;18.614;2023-05-07T07:35:39;8.20;99.90
73586;DHT22;61865;50.232;18.614;2023-05-07T07:38:01;8.30;99.90
73586;DHT22;61865;50.232;18.614;2023-05-07T07:40:23;8.40;99.90
73586;DHT22;61865;50.232;18.614;2023-05-07T07:42:45;8.30;99.90
73586;DHT22;61865;50.232;18.614;2023-05-07T07:45:09;8.30;99.90
73586;DHT22;61865;50.232;18.614;2023-05-07T07:47:30;8.40;99.90
73586;DHT22;61865;50.232;18.614;2023-05-07T07:49:52;8.30;99.90
73586;DHT22;61865;50.232;18.614;2023-05-07T07:52:14;8.40;99.90
73586;DHT22;61865;50.232;18.614;2023-05-07T07:54:36;8.60;99.90
73586;DHT22;61865;50.232;18.614;2023-05-07T07:56:58;8.90;99.90
73586;DHT22;61865;50.232;18.614;2023-05-07T07:59:21;9.00;99.90
73586;DHT22;61865;50.232;18.614;2023-05-07T08:01:45;9.10;99.90
73586;DHT22;61865;50.232;18.614;2023-05-07T08:04:08;9.10;99.90
73586;DHT22;61865;50.232;18.614;2023-05-07T08:06:30;9.10;99.90
73586;DHT22;61865;50.232;18.614;2023-05-07T08:08:52;8.90;99.90
73586;DHT22;61865;50.232;18.614;2023-05-07T08:11:14;9.00;99.90
73586;DHT22;61865;50.232;18.614;2023-05-07T08:13:36;9.10;99.90
73586;DHT22;61865;50.232;18.614;2023-05-07T08:15:59;9.20;99.90
73586;DHT22;61865;50.232;18.614;2023-05-07T08:18:22;9.10;99.90
73586;DHT22;61865;50.232;18.614;2023-05-07T08:20:45;9.00;99.90
73586;DHT22;61865;50.232;18.614;2023-05-07T08:23:07;9.10;99.90
73586;DHT22;61865;50.232;18.614;2023-05-07T08:25:29;9.00;99.90
73586;DHT22;61865;50.232;18.614;2023-05-07T08:27:51;9.20;99.90
73586;DHT22;61865;50.232;18.614;2023-05-07T08:30:14;9.20;99.90
73586;DHT22;61865;50.232;18.614;2023-05-07T08:32:36;9.30;99.90
73586;DHT22;61865;50.232;18.614;2023-05-07T08:34:59;9.50;99.90
73586;DHT22;61865;50.232;18.614;2023-05-07T08:37:21;9.60;99.90
73586;DHT22;61865;50.232;18.614;2023-05-07T08:39:43;9.90;99.90
73586;DHT22;61865;50.232;18.614;2023-05-07T08:42:05;10.00;99.90
73586;DHT22;61865;50.232;18.614;2023-05-07T08:44:28;9.80;99.90
73586;DHT22;61865;50.232;18.614;2023-05-07T08:46:56;9.60;99.90
73586;DHT22;61865;50.232;18.614;2023-05-07T08:49:18;9.50;99.90
73586;DHT22;61865;50.232;18.614;2023-05-07T08:51:41;9.70;99.90
73586;DHT22;61865;50.232;18.614;2023-05-07T08:54:04;9.70;99.90
73586;DHT22;61865;50.232;18.614;2023-05-07T08:56:26;9.60;99.90
73586;DHT22;61865;50.232;18.614;2023-05-07T08:58:48;9.60;99.90
73586;DHT22;61865;50.232;18.614;2023-05-07T09:01:13;9.70;99.90
73586;DHT22;61865;50.232;18.614;2023-05-07T09:03:37;9.90;99.90
73586;DHT22;61865;50.232;18.614;2023-05-07T09:05:59;10.10;99.90
73586;DHT22;61865;50.232;18.614;2023-05-07T09:08:24;10.30;99.90
73586;DHT22;61865;50.232;18.614;2023-05-07T09:10:48;10.20;99.90
73586;DHT22;61865;50.232;18.614;2023-05-07T09:13:11;10.10;99.90
73586;DHT22;61865;50.232;18.614;2023-05-07T09:15:34;9.90;99.90
73586;DHT22;61865;50.232;18.614;2023-05-07T09:17:59;9.60;99.90
73586;DHT22;61865;50.232;18.614;2023-05-07T09:20:23;9.50;99.90
73586;DHT22;61865;50.232;18.614;2023-05-07T09:22:44;9.60;99.90
73586;DHT22;61865;50.232;18.614;2023-05-07T09:25:10;9.80;99.90
73586;DHT22;61865;50.232;18.614;2023-05-07T09:27:32;9.90;99.90
73586;DHT22;61865;50.232;18.614;2023-05-07T09:29:54;9.70;99.90
73586;DHT22;61865;50.232;18.614;2023-05-07T09:32:16;9.80;99.90
73586;DHT22;61865;50.232;18.614;2023-05-07T09:34:38;9.60;99.90
73586;DHT22;61865;50.232;18.614;2023-05-07T09:37:01;9.70;99.90
73586;DHT22;61865;50.232;18.614;2023-05-07T09:39:23;9.50;99.90
73586;DHT22;61865;50.232;18.614;2023-05-07T09:41:47;9.50;99.90
73586;DHT22;61865;50.232;18.614;2023-05-07T09:44:12;9.60;99.90
73586;DHT22;61865;50.232;18.614;2023-05-07T09:46:36;9.60;99.90
73586;DHT22;61865;50.232;18.614;2023-05-07T09:49:01;9.70;99.90
73586;DHT22;61865;50.232;18.614;2023-05-07T09:51:26;9.70;99.90
73586;DHT22;61865;50.232;18.614;2023-05-07T09:53:50;9.80;99.90
73586;DHT22;61865;50.232;18.614;2023-05-07T09:56:14;9.80;99.90
73586;DHT22;61865;50.232;18.614;2023-05-07T09:58:39;9.80;99.90
73586;DHT22;61865;50.232;18.614;2023-05-07T10:01:03;9.90;99.90
73586;DHT22;61865;50.232;18.614;2023-05-07T10:03:27;9.80;99.90
73586;DHT22;61865;50.232;18.614;2023-05-07T10:05:51;9.60;99.90
73586;DHT22;61865;50.232;18.614;2023-05-07T10:08:13;9.30;99.90
73586;DHT22;61865;50.232;18.614;2023-05-07T10:10:37;9.10;99.90
73586;DHT22;61865;50.232;18.614;2023-05-07T10:13:01;9.00;99.90
73586;DHT22;61865;50.232;18.614;2023-05-07T10:15:28;8.90;99.90
73586;DHT22;61865;50.232;18.614;2023-05-07T10:17:51;8.80;99.90
73586;DHT22;61865;50.232;18.614;2023-05-07T10:20:17;8.80;99.90
73586;DHT22;61865;50.232;18.614;2023-05-07T10:22:44;8.90;99.90
73586;DHT22;61865;50.232;18.614;2023-05-07T10:25:12;8.80;99.90
73586;DHT22;61865;50.232;18.614;2023-05-07T10:27:35;8.90;99.90
73586;DHT22;61865;50.232;18.614;2023-05-07T10:30:05;8.90;99.90
73586;DHT22;61865;50.232;18.614;2023-05-07T10:32:38;9.00;99.90
73586;DHT22;61865;50.232;18.614;2023-05-07T10:35:03;9.10;99.90
73586;DHT22;61865;50.232;18.614;2023-05-07T10:37:26;9.10;99.90
73586;DHT22;61865;50.232;18.614;2023-05-07T10:39:48;9.20;99.90
73586;DHT22;61865;50.232;18.614;2023-05-07T10:42:12;9.20;99.90
73586;DHT22;61865;50.232;18.614;2023-05-07T10:44:34;9.20;99.90
73586;DHT22;61865;50.232;18.614;2023-05-07T10:47:06;9.20;99.90
73586;DHT22;61865;50.232;18.614;2023-05-07T10:49:30;9.10;99.90
73586;DHT22;61865;50.232;18.614;2023-05-07T10:52:14;9.10;99.90
73586;DHT22;61865;50.232;18.614;2023-05-07T10:54:36;9.10;99.90
73586;DHT22;61865;50.232;18.614;2023-05-07T10:57:34;9.10;99.90
73586;DHT22;61865;50.232;18.614;2023-05-07T10:59:59;9.00;99.90
73586;DHT22;61865;50.232;18.614;2023-05-07T11:02:21;9.00;99.90
73586;DHT22;61865;50.232;18.614;2023-05-07T11:04:44;9.00;99.90
73586;DHT22;61865;50.232;18.614;2023-05-07T11:07:24;9.00;99.90
73586;DHT22;61865;50.232;18.614;2023-05-07T11:10:10;8.90;99.90
73586;DHT22;61865;50.232;18.614;2023-05-07T11:12:51;8.80;99.90
73586;DHT22;61865;50.232;18.614;2023-05-07T11:15:13;8.80;99.90
73586;DHT22;61865;50.232;18.614;2023-05-07T11:17:52;8.70;99.90
73586;DHT22;61865;50.232;18.614;2023-05-07T11:20:17;8.80;99.90
73586;DHT22;61865;50.232;18.614;2023-05-07T11:22:39;8.90;99.90
73586;DHT22;61865;50.232;18.614;2023-05-07T11:25:02;8.90;99.90
73586;DHT22;61865;50.232;18.614;2023-05-07T11:27:24;9.00;99.90
73586;DHT22;61865;50.232;18.614;2023-05-07T11:29:47;8.90;99.90
73586;DHT22;61865;50.232;18.614;2023-05-07T11:32:09;8.90;99.90
73586;DHT22;61865;50.232;18.614;2023-05-07T11:34:31;8.90;99.90
73586;DHT22;61865;50.232;18.614;2023-05-07T11:36:55;9.00;99.90
73586;DHT22;61865;50.232;18.614;2023-05-07T11:39:27;9.00;99.90
73586;DHT22;61865;50.232;18.614;2023-05-07T11:41:50;9.00;99.90
73586;DHT22;61865;50.232;18.614;2023-05-07T11:44:11;9.10;99.90
73586;DHT22;61865;50.232;18.614;2023-05-07T11:46:33;9.20;99.90
73586;DHT22;61865;50.232;18.614;2023-05-07T11:48:56;9.40;99.90
73586;DHT22;61865;50.232;18.614;2023-05-07T11:51:22;9.50;99.90
73586;DHT22;61865;50.232;18.614;2023-05-07T11:53:45;9.40;99.90
73586;DHT22;61865;50.232;18.614;2023-05-07T11:56:08;9.40;99.90
73586;DHT22;61865;50.232;18.614;2023-05-07T11:58:30;9.30;99.90
73586;DHT22;61865;50.232;18.614;2023-05-07T12:00:52;9.10;99.90
73586;DHT22;61865;50.232;18.614;2023-05-07T12:03:14;9.00;99.90
73586;DHT22;61865;50.232;18.614;2023-05-07T12:05:36;9.10;99.90
73586;DHT22;61865;50.232;18.614;2023-05-07T12:08:02;9.20;99.90
73586;DHT22;61865;50.232;18.614;2023-05-07T12:10:25;9.20;99.90
73586;DHT22;61865;50.232;18.614;2023-05-07T12:12:47;9.10;99.90
73586;DHT22;61865;50.232;18.614;2023-05-07T12:15:15;9.00;99.90
73586;DHT22;61865;50.232;18.614;2023-05-07T12:17:37;8.90;99.90
73586;DHT22;61865;50.232;18.614;2023-05-07T12:20:00;8.90;99.90
73586;DHT22;61865;50.232;18.614;2023-05-07T12:22:24;8.80;99.90
73586;DHT22;61865;50.232;18.614;2023-05-07T12:24:47;8.70;99.90
73586;DHT22;61865;50.232;18.614;2023-05-07T12:27:11;8.80;99.90
73586;DHT22;61865;50.232;18.614;2023-05-07T12:29:33;8.80;99.90
73586;DHT22;61865;50.232;18.614;2023-05-07T12:31:55;8.90;99.90
73586;DHT22;61865;50.232;18.614;2023-05-07T12:34:17;8.90;99.90
73586;DHT22;61865;50.232;18.614;2023-05-07T12:36:39;8.90;99.90
73586;DHT22;61865;50.232;18.614;2023-05-07T12:39:01;8.90;99.90
73586;DHT22;61865;50.232;18.614;2023-05-07T12:41:24;8.90;99.90
73586;DHT22;61865;50.232;18.614;2023-05-07T12:43:56;8.90;99.90
73586;DHT22;61865;50.232;18.614;2023-05-07T12:46:18;8.90;99.90
73586;DHT22;61865;50.232;18.614;2023-05-07T12:48:43;8.80;99.90
73586;DHT22;61865;50.232;18.614;2023-05-07T12:51:06;8.80;99.90
73586;DHT22;61865;50.232;18.614;2023-05-07T12:53:30;8.80;99.90
73586;DHT22;61865;50.232;18.614;2023-05-07T12:55:54;8.70;99.90
73586;DHT22;61865;50.232;18.614;2023-05-07T12:58:20;8.80;99.90
73586;DHT22;61865;50.232;18.614;2023-05-07T13:00:44;8.80;99.90
73586;DHT22;61865;50.232;18.614;2023-05-07T13:03:06;8.90;99.90
73586;DHT22;61865;50.232;18.614;2023-05-07T13:05:28;9.10;99.90
73586;DHT22;61865;50.232;18.614;2023-05-07T13:07:53;9.30;99.90
73586;DHT22;61865;50.232;18.614;2023-05-07T13:10:15;9.60;99.90
73586;DHT22;61865;50.232;18.614;2023-05-07T13:12:37;9.70;99.90
73586;DHT22;61865;50.232;18.614;2023-05-07T13:14:58;9.80;99.90
73586;DHT22;61865;50.232;18.614;2023-05-07T13:17:22;9.80;99.90
73586;DHT22;61865;50.232;18.614;2023-05-07T13:19:43;9.70;99.90
73586;DHT22;61865;50.232;18.614;2023-05-07T13:22:08;9.60;99.90
73586;DHT22;61865;50.232;18.614;2023-05-07T13:24:31;9.50;99.90
73586;DHT22;61865;50.232;18.614;2023-05-07T13:26:53;9.50;99.90
73586;DHT22;61865;50.232;18.614;2023-05-07T13:29:15;9.30;99.90
73586;DHT22;61865;50.232;18.614;2023-05-07T13:31:37;9.20;99.90
73586;DHT22;61865;50.232;18.614;2023-05-07T13:34:04;9.20;99.90
73586;DHT22;61865;50.232;18.614;2023-05-07T13:36:25;9.20;99.90
73586;DHT22;61865;50.232;18.614;2023-05-07T13:38:50;9.20;99.90
73586;DHT22;61865;50.232;18.614;2023-05-07T13:41:13;9.30;99.90
73586;DHT22;61865;50.232;18.614;2023-05-07T13:43:35;9.30;99.90
73586;DHT22;61865;50.232;18.614;2023-05-07T13:45:57;9.40;99.90
73586;DHT22;61865;50.232;18.614;2023-05-07T13:48:19;9.40;99.90
73586;DHT22;61865;50.232;18.614;2023-05-07T13:50:42;9.50;99.90
73586;DHT22;61865;50.232;18.614;2023-05-07T13:53:04;9.60;99.90
73586;DHT22;61865;50.232;18.614;2023-05-07T13:55:29;9.80;99.90
73586;DHT22;61865;50.232;18.614;2023-05-07T13:57:55;9.90;99.90
73586;DHT22;61865;50.232;18.614;2023-05-07T14:00:18;10.00;99.90
73586;DHT22;61865;50.232;18.614;2023-05-07T14:02:40;10.00;99.90
73586;DHT22;61865;50.232;18.614;2023-05-07T14:05:02;9.90;99.90
73586;DHT22;61865;50.232;18.614;2023-05-07T14:07:26;9.90;99.90
73586;DHT22;61865;50.232;18.614;2023-05-07T14:09:48;9.80;99.90
73586;DHT22;61865;50.232;18.614;2023-05-07T14:12:10;9.70;99.90
73586;DHT22;61865;50.232;18.614;2023-05-07T14:14:32;9.70;99.90
73586;DHT22;61865;50.232;18.614;2023-05-07T14:16:54;9.50;99.90
73586;DHT22;61865;50.232;18.614;2023-05-07T14:19:16;9.50;99.90
73586;DHT22;61865;50.232;18.614;2023-05-07T14:21:39;9.40;99.90
73586;DHT22;61865;50.232;18.614;2023-05-07T14:24:03;9.40;99.90
73586;DHT22;61865;50.232;18.614;2023-05-07T14:26:24;9.30;99.90
73586;DHT22;61865;50.232;18.614;2023-05-07T14:28:47;9.30;99.90
73586;DHT22;61865;50.232;18.614;2023-05-07T14:31:09;9.20;99.90
73586;DHT22;61865;50.232;18.614;2023-05-07T14:33:31;9.30;99.90
73586;DHT22;61865;50.232;18.614;2023-05-07T14:35:53;9.20;99.90
73586;DHT22;61865;50.232;18.614;2023-05-07T14:38:15;9.30;99.90
73586;DHT22;61865;50.232;18.614;2023-05-07T14:40:40;9.30;99.90
73586;DHT22;61865;50.232;18.614;2023-05-07T14:43:02;9.30;99.90
73586;DHT22;61865;50.232;18.614;2023-05-07T14:45:23;9.40;99.90
73586;DHT22;61865;50.232;18.614;2023-05-07T14:47:45;9.40;99.90
73586;DHT22;61865;50.232;18.614;2023-05-07T14:50:08;9.40;99.90
73586;DHT22;61865;50.232;18.614;2023-05-07T14:52:30;9.30;99.90
73586;DHT22;61865;50.232;18.614;2023-05-07T14:54:52;9.30;99.90
73586;DHT22;61865;50.232;18.614;2023-05-07T14:57:16;9.20;99.90
73586;DHT22;61865;50.232;18.614;2023-05-07T14:59:39;9.10;99.90
73586;DHT22;61865;50.232;18.614;2023-05-07T15:02:01;9.00;99.90